sensor_id;sensor_type;location;lat;lon;timestamp;temperature;humidity
21928;DHT22;11128;51.096;17.190;2024-02-04T00:00:50;8.50;99.90
21928;DHT22;11128;51.096;17.190;2024-02-04T00:05:51;8.40;99.90
21928;DHT22;11128;51.096;17.190;2024-02-04T00:10:53;8.40;99.90
21928;DHT22;11128;51.096;17.190;2024-02-04T00:15:54;8.40;99.90
21928;DHT22;11128;51.096;17.190;2024-02-04T00:20:56;8.30;99.90
21928;DHT22;11128;51.096;17.190;2024-02-04T00:25:57;8.30;99.90
21928;DHT22;11128;51.096;17.190;2024-02-04T00:30:58;8.30;99.90
21928;DHT22;11128;51.096;17.190;2024-02-04T00:36:00;8.20;99.90
21928;DHT22;11128;51.096;17.190;2024-02-04T00:41:02;8.20;1.00
21928;DHT22;11128;51.096;17.190;2024-02-04T00:46:03;8.10;1.00
21928;DHT22;11128;51.096;17.190;2024-02-04T00:51:05;8.10;1.00
21928;DHT22;11128;51.096;17.190;2024-02-04T00:56:06;8.10;99.90
21928;DHT22;11128;51.096;17.190;2024-02-04T01:01:08;8.10;99.90
21928;DHT22;11128;51.096;17.190;2024-02-04T01:06:09;8.10;99.90
21928;DHT22;11128;51.096;17.190;2024-02-04T01:11:10;8.00;28.80
21928;DHT22;11128;51.096;17.190;2024-02-04T01:16:11;8.00;1.00
21928;DHT22;11128;51.096;17.190;2024-02-04T01:21:13;7.90;1.00
21928;DHT22;11128;51.096;17.190;2024-02-04T01:26:14;7.90;99.90
21928;DHT22;11128;51.096;17.190;2024-02-04T01:31:16;7.80;99.90
21928;DHT22;11128;51.096;17.190;2024-02-04T01:36:17;7.80;1.00
21928;DHT22;11128;51.096;17.190;2024-02-04T01:41:18;7.70;1.00
21928;DHT22;11128;51.096;17.190;2024-02-04T01:46:20;7.70;1.00
21928;DHT22;11128;51.096;17.190;2024-02-04T01:51:21;7.70;1.00
21928;DHT22;11128;51.096;17.190;2024-02-04T01:56:23;7.60;99.90
21928;DHT22;11128;51.096;17.190;2024-02-04T02:01:24;7.60;1.00
21928;DHT22;11128;51.096;17.190;2024-02-04T02:06:26;7.60;1.00
21928;DHT22;11128;51.096;17.190;2024-02-04T02:11:35;7.70;99.90
21928;DHT22;11128;51.096;17.190;2024-02-04T02:16:39;7.70;1.00
21928;DHT22;11128;51.096;17.190;2024-02-04T02:21:56;8.00;1.00
21928;DHT22;11128;51.096;17.190;2024-02-04T02:27:01;7.80;17.60
21928;DHT22;11128;51.096;17.190;2024-02-04T02:32:03;7.90;99.90
21928;DHT22;11128;51.096;17.190;2024-02-04T02:37:26;7.90;99.90
21928;DHT22;11128;51.096;17.190;2024-02-04T02:42:30;7.90;99.90
21928;DHT22;11128;51.096;17.190;2024-02-04T02:47:32;7.90;99.90
21928;DHT22;11128;51.096;17.190;2024-02-04T02:52:34;7.90;1.00
21928;DHT22;11128;51.096;17.190;2024-02-04T02:57:36;8.00;1.00
21928;DHT22;11128;51.096;17.190;2024-02-04T03:02:37;8.00;99.90
21928;DHT22;11128;51.096;17.190;2024-02-04T03:07:38;7.90;99.90
21928;DHT22;11128;51.096;17.190;2024-02-04T03:12:39;7.80;1.00
21928;DHT22;11128;51.096;17.190;2024-02-04T03:17:43;7.80;99.90
21928;DHT22;11128;51.096;17.190;2024-02-04T03:22:48;7.70;1.00
21928;DHT22;11128;51.096;17.190;2024-02-04T03:27:49;7.70;1.00
21928;DHT22;11128;51.096;17.190;2024-02-04T03:32:50;7.50;1.00
21928;DHT22;11128;51.096;17.190;2024-02-04T03:37:51;7.60;1.00
21928;DHT22;11128;51.096;17.190;2024-02-04T03:42:53;7.60;1.00
21928;DHT22;11128;51.096;17.190;2024-02-04T03:47:54;7.50;1.00
21928;DHT22;11128;51.096;17.190;2024-02-04T03:52:55;7.50;1.00
21928;DHT22;11128;51.096;17.190;2024-02-04T03:57:57;7.50;99.90
21928;DHT22;11128;51.096;17.190;2024-02-04T04:02:59;7.40;99.90
21928;DHT22;11128;51.096;17.190;2024-02-04T04:08:00;7.30;1.00
21928;DHT22;11128;51.096;17.190;2024-02-04T04:13:01;7.30;1.00
21928;DHT22;11128;51.096;17.190;2024-02-04T04:18:03;7.30;99.90
21928;DHT22;11128;51.096;17.190;2024-02-04T04:23:04;7.20;1.00
21928;DHT22;11128;51.096;17.190;2024-02-04T04:28:06;7.20;99.90
21928;DHT22;11128;51.096;17.190;2024-02-04T04:33:07;7.10;1.00
21928;DHT22;11128;51.096;17.190;2024-02-04T04:38:09;7.20;1.00
21928;DHT22;11128;51.096;17.190;2024-02-04T04:43:10;7.10;1.00
21928;DHT22;11128;51.096;17.190;2024-02-04T04:48:13;7.00;1.00
21928;DHT22;11128;51.096;17.190;2024-02-04T04:53:14;7.10;1.00
21928;DHT22;11128;51.096;17.190;2024-02-04T04:58:15;6.90;1.00
21928;DHT22;11128;51.096;17.190;2024-02-04T05:03:17;6.90;1.00
21928;DHT22;11128;51.096;17.190;2024-02-04T05:08:18;6.90;1.00
21928;DHT22;11128;51.096;17.190;2024-02-04T05:13:20;6.80;1.00
21928;DHT22;11128;51.096;17.190;2024-02-04T05:18:21;6.80;35.90
21928;DHT22;11128;51.096;17.190;2024-02-04T05:23:23;6.70;99.90
21928;DHT22;11128;51.096;17.190;2024-02-04T05:28:24;6.70;99.90
21928;DHT22;11128;51.096;17.190;2024-02-04T05:33:26;6.60;99.90
21928;DHT22;11128;51.096;17.190;2024-02-04T05:38:27;6.90;99.90
21928;DHT22;11128;51.096;17.190;2024-02-04T05:43:29;6.50;1.00
21928;DHT22;11128;51.096;17.190;2024-02-04T05:48:30;6.40;1.00
21928;DHT22;11128;51.096;17.190;2024-02-04T05:53:31;6.40;1.00
21928;DHT22;11128;51.096;17.190;2024-02-04T05:58:32;6.60;1.00
21928;DHT22;11128;51.096;17.190;2024-02-04T06:03:34;6.20;1.00
21928;DHT22;11128;51.096;17.190;2024-02-04T06:08:35;6.20;5.70
21928;DHT22;11128;51.096;17.190;2024-02-04T06:13:38;6.20;1.00
21928;DHT22;11128;51.096;17.190;2024-02-04T06:18:40;6.10;1.00
21928;DHT22;11128;51.096;17.190;2024-02-04T06:23:41;6.10;1.00
21928;DHT22;11128;51.096;17.190;2024-02-04T06:28:42;6.10;1.00
21928;DHT22;11128;51.096;17.190;2024-02-04T06:33:47;6.10;1.00
21928;DHT22;11128;51.096;17.190;2024-02-04T06:38:48;6.10;1.00
21928;DHT22;11128;51.096;17.190;2024-02-04T06:43:49;6.10;1.00
21928;DHT22;11128;51.096;17.190;2024-02-04T06:48:51;6.10;1.00
21928;DHT22;11128;51.096;17.190;2024-02-04T06:53:52;6.00;1.00
21928;DHT22;11128;51.096;17.190;2024-02-04T06:58:53;6.00;1.00
21928;DHT22;11128;51.096;17.190;2024-02-04T07:03:55;6.00;1.00
21928;DHT22;11128;51.096;17.190;2024-02-04T07:08:56;6.00;1.00
21928;DHT22;11128;51.096;17.190;2024-02-04T07:13:58;6.00;1.00
21928;DHT22;11128;51.096;17.190;2024-02-04T07:19:01;6.00;1.00
21928;DHT22;11128;51.096;17.190;2024-02-04T07:24:02;6.00;1.00
21928;DHT22;11128;51.096;17.190;2024-02-04T07:29:03;6.10;1.00
21928;DHT22;11128;51.096;17.190;2024-02-04T07:34:05;6.10;99.90
21928;DHT22;11128;51.096;17.190;2024-02-04T07:39:06;6.20;99.90
21928;DHT22;11128;51.096;17.190;2024-02-04T07:44:08;6.30;1.00
21928;DHT22;11128;51.096;17.190;2024-02-04T07:49:10;6.60;1.00
21928;DHT22;11128;51.096;17.190;2024-02-04T07:54:11;6.70;1.00
21928;DHT22;11128;51.096;17.190;2024-02-04T07:59:12;6.80;99.90
21928;DHT22;11128;51.096;17.190;2024-02-04T08:04:14;7.00;99.90
21928;DHT22;11128;51.096;17.190;2024-02-04T08:09:16;7.20;79.80
21928;DHT22;11128;51.096;17.190;2024-02-04T08:14:17;7.40;48.50
21928;DHT22;11128;51.096;17.190;2024-02-04T08:19:19;7.60;1.00
21928;DHT22;11128;51.096;17.190;2024-02-04T08:24:20;7.80;1.00
21928;DHT22;11128;51.096;17.190;2024-02-04T08:29:22;8.10;1.00
21928;DHT22;11128;51.096;17.190;2024-02-04T08:34:23;8.30;99.90
21928;DHT22;11128;51.096;17.190;2024-02-04T08:39:27;8.40;99.90
21928;DHT22;11128;51.096;17.190;2024-02-04T08:44:31;8.20;99.90
